Time;durP1;ratioP1;P1;durP2;ratioP2;P2;SDS_P1;SDS_P2;PMS_P1;PMS_P2;Temp;Humidity;BMP_temperature;BMP_pressure;BME280_temperature;BME280_humidity;BME280_pressure;Samples;Min_cycle;Max_cycle;Signal;HPM_P1;HPM_P2
2023/10/26 00:01:38;;;;;;;32.00;26.00;;;;;;;11.55;100.00;98581.51;88463;277;139152;-70
2023/10/26 00:03:40;;;;;;;26.40;23.50;;;;;;;11.61;100.00;98583.27;88463;274;22612;-69
2023/10/26 00:05:43;;;;;;;24.70;22.10;;;;;;;11.67;100.00;98575.51;88579;281;137289;-72
2023/10/26 00:07:45;;;;;;;29.40;23.00;;;;;;;11.71;100.00;98569.06;88512;273;24134;-72
2023/10/26 00:09:47;;;;;;;23.90;21.50;;;;;;;11.73;100.00;98557.84;88487;281;137368;-72
2023/10/26 00:11:49;;;;;;;22.30;19.90;;;;;;;11.89;100.00;98566.30;88560;274;22541;-72
2023/10/26 00:13:51;;;;;;;20.10;18.10;;;;;;;11.95;100.00;98564.66;88517;281;137510;-72
2023/10/26 00:15:54;;;;;;;16.40;14.80;;;;;;;11.96;100.00;98553.23;88488;273;25168;-73
2023/10/26 00:17:55;;;;;;;18.70;17.00;;;;;;;12.12;100.00;98557.73;88353;275;137195;-70
2023/10/26 00:19:58;;;;;;;17.20;15.00;;;;;;;12.18;100.00;98556.98;88415;283;23755;-70
2023/10/26 00:22:00;;;;;;;17.40;15.80;;;;;;;12.26;100.00;98553.41;88809;281;137972;-72
2023/10/26 00:24:02;;;;;;;15.00;13.70;;;;;;;12.34;100.00;98548.45;88510;277;25181;-71
2023/10/26 00:26:04;;;;;;;14.40;12.90;;;;;;;12.38;100.00;98545.42;88650;280;23934;-71
2023/10/26 00:28:06;;;;;;;16.40;13.80;;;;;;;12.43;100.00;98547.37;88425;280;138856;-71
2023/10/26 00:30:12;;;;;;;14.10;12.70;;;;;;;12.45;100.00;98547.67;88596;274;24015;-72
2023/10/26 00:32:14;;;;;;;13.50;12.20;;;;;;;12.48;100.00;98544.98;88347;283;138806;-71
2023/10/26 00:34:15;;;;;;;13.50;12.30;;;;;;;12.51;100.00;98544.86;88393;275;22658;-70
2023/10/26 00:36:17;;;;;;;13.60;12.30;;;;;;;12.55;100.00;98536.84;88434;282;137952;-72
2023/10/26 00:38:21;;;;;;;13.90;12.70;;;;;;;12.59;100.00;98537.73;88522;275;22530;-72
2023/10/26 00:40:24;;;;;;;13.30;12.20;;;;;;;12.63;100.00;98542.58;88365;274;137665;-71
2023/10/26 00:42:26;;;;;;;13.60;12.40;;;;;;;12.65;100.00;98541.70;88484;278;22550;-71
2023/10/26 00:44:30;;;;;;;16.70;11.60;;;;;;;12.67;100.00;98544.07;88392;275;137458;-69
2023/10/26 00:46:35;;;;;;;12.00;10.90;;;;;;;12.70;100.00;98544.88;88500;274;24183;-68
2023/10/26 00:48:37;;;;;;;10.70;9.80;;;;;;;12.71;100.00;98545.42;88377;283;138032;-69
2023/10/26 00:50:42;;;;;;;9.80;9.00;;;;;;;12.71;100.00;98551.13;88470;283;25283;-70
2023/10/26 00:52:44;;;;;;;10.70;9.70;;;;;;;12.69;100.00;98551.39;88459;282;138570;-69
2023/10/26 00:54:46;;;;;;;9.10;8.40;;;;;;;12.69;100.00;98551.92;88484;278;25077;-71
2023/10/26 00:56:50;;;;;;;10.20;9.40;;;;;;;12.68;100.00;98554.42;88402;281;137039;-70
2023/10/26 00:58:53;;;;;;;11.60;10.70;;;;;;;12.70;100.00;98547.50;88583;281;24014;-70
2023/10/26 01:00:55;;;;;;;13.00;12.00;;;;;;;12.70;100.00;98546.96;88450;275;138125;-71
2023/10/26 01:02:58;;;;;;;12.00;10.90;;;;;;;12.70;100.00;98549.31;88584;278;23745;-70
2023/10/26 01:05:01;;;;;;;10.30;9.40;;;;;;;12.72;100.00;98546.61;88325;275;138038;-71
2023/10/26 01:07:05;;;;;;;11.10;10.10;;;;;;;12.73;100.00;98545.02;88432;283;22534;-69
2023/10/26 01:09:09;;;;;;;8.80;8.10;;;;;;;12.74;100.00;98548.67;88603;281;138726;-69
2023/10/26 01:11:13;;;;;;;9.70;8.80;;;;;;;12.74;100.00;98552.30;88546;282;24037;-70
2023/10/26 01:13:18;;;;;;;9.00;8.30;;;;;;;12.73;100.00;98552.30;88368;274;137190;-70
2023/10/26 01:15:20;;;;;;;8.60;8.00;;;;;;;12.73;100.00;98551.75;88523;282;25080;-69
2023/10/26 01:17:23;;;;;;;9.30;8.60;;;;;;;12.70;100.00;98551.08;88392;281;137411;-70
2023/10/26 01:19:40;;;;;;;9.70;8.80;;;;;;;12.68;100.00;98551.63;88471;281;26251;-70
2023/10/26 01:21:48;;;;;;;10.40;9.40;;;;;;;12.66;100.00;98551.88;88291;275;138434;-70
2023/10/26 01:23:50;;;;;;;11.20;10.20;;;;;;;12.64;100.00;98557.05;88515;273;24899;-71
2023/10/26 01:25:55;;;;;;;11.30;10.40;;;;;;;12.67;100.00;98554.94;88194;282;138742;-70
2023/10/26 01:27:57;;;;;;;12.30;11.10;;;;;;;12.69;100.00;98550.56;88500;282;29695;-71
2023/10/26 01:29:59;;;;;;;12.50;11.50;;;;;;;12.71;100.00;98552.74;88228;280;138617;-70
2023/10/26 01:32:02;;;;;;;11.10;10.10;;;;;;;12.74;100.00;98553.27;88517;281;22534;-71
2023/10/26 01:34:04;;;;;;;12.90;11.70;;;;;;;12.73;100.00;98555.55;88356;279;22542;-71
2023/10/26 01:36:06;;;;;;;12.30;11.20;;;;;;;12.75;100.00;98558.30;88408;281;137786;-70
2023/10/26 01:38:09;;;;;;;11.50;10.60;;;;;;;12.74;100.00;98561.71;88433;275;24175;-73
2023/10/26 01:40:11;;;;;;;11.90;10.90;;;;;;;12.74;100.00;98564.66;88334;277;137512;-72
2023/10/26 01:42:13;;;;;;;12.20;11.20;;;;;;;12.75;100.00;98566.28;88390;282;24253;-71
2023/10/26 01:44:14;;;;;;;12.80;11.80;;;;;;;12.73;100.00;98563.63;88270;275;138051;-72
2023/10/26 01:46:16;;;;;;;14.00;12.70;;;;;;;12.73;100.00;98562.30;88291;279;25386;-71
2023/10/26 01:48:18;;;;;;;12.80;11.70;;;;;;;12.75;100.00;98560.11;88230;283;138490;-70
2023/10/26 01:50:21;;;;;;;13.00;11.90;;;;;;;12.73;100.00;98561.06;88483;276;22648;-70
2023/10/26 01:52:23;;;;;;;12.40;11.20;;;;;;;12.75;100.00;98561.88;88474;280;140483;-71
2023/10/26 01:54:24;;;;;;;12.30;11.10;;;;;;;12.75;100.00;98564.56;88482;279;24144;-69
2023/10/26 01:56:26;;;;;;;13.00;11.90;;;;;;;12.78;100.00;98560.70;88513;274;138668;-72
2023/10/26 01:58:28;;;;;;;11.60;10.60;;;;;;;12.78;100.00;98558.30;88353;283;25084;-71
2023/10/26 02:00:30;;;;;;;12.60;11.60;;;;;;;12.78;100.00;98564.13;88177;279;137610;-70
2023/10/26 02:02:33;;;;;;;12.40;11.40;;;;;;;12.78;100.00;98566.43;87968;281;720982;-68
2023/10/26 02:04:34;;;;;;;13.10;11.80;;;;;;;12.75;100.00;98563.28;88548;281;138843;-70
2023/10/26 02:06:36;;;;;;;10.90;9.90;;;;;;;12.77;100.00;98570.17;88417;283;22686;-70
2023/10/26 02:08:38;;;;;;;11.10;10.10;;;;;;;12.76;100.00;98570.20;88409;282;137252;-70
2023/10/26 02:10:41;;;;;;;10.50;9.70;;;;;;;12.75;100.00;98570.60;88495;282;22834;-70
2023/10/26 02:12:43;;;;;;;12.10;11.00;;;;;;;12.72;100.00;98573.92;88370;283;137221;-69
2023/10/26 02:14:45;;;;;;;11.30;10.20;;;;;;;12.69;100.00;98571.53;88406;281;22531;-70
2023/10/26 02:16:47;;;;;;;11.50;10.50;;;;;;;12.66;100.00;98573.25;88413;282;138710;-69
2023/10/26 02:18:50;;;;;;;11.70;10.60;;;;;;;12.63;100.00;98571.03;88501;278;22586;-70
2023/10/26 02:20:51;;;;;;;12.20;11.00;;;;;;;12.62;100.00;98569.78;88347;280;137187;-68
2023/10/26 02:22:53;;;;;;;10.70;9.80;;;;;;;12.62;100.00;98573.09;88651;280;22901;-67
2023/10/26 02:24:57;;;;;;;11.60;10.60;;;;;;;12.61;100.00;98573.08;88456;279;139182;-68
2023/10/26 02:27:00;;;;;;;11.30;10.20;;;;;;;12.59;100.00;98573.63;88360;283;22779;-69
2023/10/26 02:29:02;;;;;;;12.90;11.70;;;;;;;12.57;100.00;98572.27;88422;278;137199;-72
2023/10/26 02:31:04;;;;;;;10.80;9.90;;;;;;;12.57;100.00;98575.00;88437;274;22615;-72
2023/10/26 02:33:06;;;;;;;10.70;9.80;;;;;;;12.57;100.00;98575.91;88426;274;137300;-72
2023/10/26 02:35:09;;;;;;;12.50;11.40;;;;;;;12.55;100.00;98579.25;88330;283;25086;-68
2023/10/26 02:37:11;;;;;;;11.10;10.10;;;;;;;12.46;100.00;98566.16;88376;282;137239;-68
2023/10/26 02:39:12;;;;;;;11.70;10.60;;;;;;;12.52;100.00;98585.83;88435;279;22532;-71
2023/10/26 02:41:14;;;;;;;10.60;9.70;;;;;;;12.53;100.00;98589.48;88220;283;137077;-70
2023/10/26 02:43:16;;;;;;;11.50;10.40;;;;;;;12.54;100.00;98593.55;88533;279;22549;-70
2023/10/26 02:45:18;;;;;;;10.40;9.60;;;;;;;12.52;100.00;98590.48;88367;282;137464;-70
2023/10/26 02:47:23;;;;;;;10.60;9.80;;;;;;;12.50;100.00;98588.27;88667;275;25112;-69
2023/10/26 02:49:25;;;;;;;12.60;11.30;;;;;;;12.47;100.00;98588.54;88415;282;138129;-67
2023/10/26 02:51:29;;;;;;;11.40;10.40;;;;;;;12.45;100.00;98590.20;88549;282;24054;-69
2023/10/26 02:53:31;;;;;;;11.40;10.30;;;;;;;12.44;100.00;98592.27;88456;281;137204;-68
2023/10/26 02:55:33;;;;;;;11.00;10.10;;;;;;;12.42;100.00;98593.21;88435;279;22554;-69
2023/10/26 02:57:34;;;;;;;11.50;10.30;;;;;;;12.43;100.00;98596.80;88388;281;138314;-70
2023/10/26 02:59:36;;;;;;;11.60;10.50;;;;;;;12.40;100.00;98596.10;88482;282;22521;-69
2023/10/26 03:01:38;;;;;;;11.80;10.60;;;;;;;12.38;100.00;98600.67;88365;281;137237;-69
2023/10/26 03:03:40;;;;;;;12.80;11.70;;;;;;;12.38;100.00;98601.00;88510;282;22531;-70
2023/10/26 03:05:42;;;;;;;12.80;11.60;;;;;;;12.39;100.00;98604.46;88295;275;138462;-69
2023/10/26 03:07:46;;;;;;;14.10;12.70;;;;;;;12.37;100.00;98607.88;88585;277;22534;-71
2023/10/26 03:09:49;;;;;;;12.70;11.40;;;;;;;12.37;100.00;98612.41;88457;278;137456;-69
2023/10/26 03:11:52;;;;;;;27.80;22.50;;;;;;;12.36;100.00;98613.47;88602;278;25083;-69
2023/10/26 03:13:53;;;;;;;20.80;17.10;;;;;;;12.35;100.00;98613.13;88426;281;137331;-69
2023/10/26 03:15:55;;;;;;;28.00;21.60;;;;;;;12.33;100.00;98608.71;88513;282;25145;-69
2023/10/26 03:17:57;;;;;;;35.40;26.50;;;;;;;12.33;100.00;98611.59;88439;283;137650;-67
2023/10/26 03:19:59;;;;;;;37.20;25.50;;;;;;;12.34;100.00;98611.83;88404;282;24569;-71
2023/10/26 03:22:01;;;;;;;38.00;26.30;;;;;;;12.35;100.00;98616.07;88422;281;137139;-69
2023/10/26 03:24:03;;;;;;;39.90;29.80;;;;;;;12.36;100.00;98620.80;88496;278;22574;-70
2023/10/26 03:26:11;;;;;;;37.60;26.40;;;;;;;12.37;100.00;98618.34;88829;281;22621;-66
2023/10/26 03:28:16;;;;;;;32.40;23.80;;;;;;;12.37;100.00;98619.73;88367;283;137534;-71
2023/10/26 03:30:18;;;;;;;30.70;17.70;;;;;;;12.36;100.00;98618.49;88541;274;22536;-72
2023/10/26 03:32:19;;;;;;;19.70;14.80;;;;;;;12.34;100.00;98619.05;88400;273;137760;-71
2023/10/26 03:34:21;;;;;;;19.10;15.20;;;;;;;12.34;100.00;98620.20;88442;283;24965;-68
2023/10/26 03:36:23;;;;;;;19.80;16.00;;;;;;;12.34;100.00;98619.59;88351;276;137965;-70
2023/10/26 03:38:25;;;;;;;27.10;21.60;;;;;;;12.36;100.00;98622.02;88724;274;22546;-71
2023/10/26 03:40:29;;;;;;;47.20;34.70;;;;;;;12.36;100.00;98622.45;88459;274;137308;-70
2023/10/26 03:42:32;;;;;;;44.60;34.10;;;;;;;12.35;100.00;98622.64;88477;281;25236;-70
2023/10/26 03:44:33;;;;;;;40.90;32.20;;;;;;;12.34;100.00;98625.50;88298;278;137167;-69
2023/10/26 03:46:35;;;;;;;22.50;18.80;;;;;;;12.33;100.00;98626.39;88481;274;22804;-69
2023/10/26 03:48:39;;;;;;;21.50;15.50;;;;;;;12.32;100.00;98627.48;88443;274;137368;-69
2023/10/26 03:50:43;;;;;;;16.40;14.80;;;;;;;12.31;100.00;98625.94;88565;281;22619;-69
2023/10/26 03:52:47;;;;;;;12.60;11.50;;;;;;;12.30;100.00;98630.09;88361;274;137364;-69
2023/10/26 03:54:50;;;;;;;12.70;11.40;;;;;;;12.29;100.00;98633.77;88529;274;24165;-70
2023/10/26 03:56:53;;;;;;;10.50;9.60;;;;;;;12.25;100.00;98633.92;88439;282;137986;-70
2023/10/26 03:58:55;;;;;;;11.80;10.50;;;;;;;12.24;100.00;98631.61;88466;282;22552;-72
2023/10/26 04:00:57;;;;;;;12.70;11.50;;;;;;;12.26;100.00;98635.10;88279;274;137393;-71
2023/10/26 04:03:00;;;;;;;17.50;14.50;;;;;;;12.27;100.00;98639.34;88406;274;22542;-71
2023/10/26 04:05:04;;;;;;;15.80;11.80;;;;;;;12.26;100.00;98635.75;88323;273;137325;-70
2023/10/26 04:07:07;;;;;;;12.30;10.10;;;;;;;12.23;100.00;98639.77;88380;277;25136;-71
2023/10/26 04:09:09;;;;;;;9.10;8.30;;;;;;;12.23;100.00;98638.21;88354;274;138053;-69
2023/10/26 04:11:17;;;;;;;9.00;7.70;;;;;;;12.22;100.00;98641.13;88348;274;26090;-70
2023/10/26 04:13:19;;;;;;;8.30;7.60;;;;;;;12.23;100.00;98640.55;88319;273;138385;-68
2023/10/26 04:15:21;;;;;;;8.40;7.60;;;;;;;12.23;100.00;98644.17;88225;277;26956;-69
2023/10/26 04:17:23;;;;;;;9.00;8.20;;;;;;;12.21;100.00;98654.41;88194;281;136877;-70
2023/10/26 04:19:25;;;;;;;8.10;7.40;;;;;;;12.23;100.00;98653.21;88316;277;22548;-70
2023/10/26 04:21:26;;;;;;;9.00;8.20;;;;;;;12.22;100.00;98656.30;88149;273;137035;-71
2023/10/26 04:23:28;;;;;;;8.40;7.60;;;;;;;12.24;100.00;98654.95;88282;278;22534;-70
2023/10/26 04:25:30;;;;;;;7.20;6.60;;;;;;;12.25;100.00;98650.25;88223;274;136921;-69
2023/10/26 04:27:50;;;;;;;6.50;6.00;;;;;;;12.23;100.00;98658.67;88368;274;22530;-71
2023/10/26 04:29:52;;;;;;;6.90;6.40;;;;;;;12.23;100.00;98662.20;88303;274;137095;-71
2023/10/26 04:31:54;;;;;;;9.40;7.60;;;;;;;12.26;100.00;98666.42;88255;276;23720;-70
2023/10/26 04:33:58;;;;;;;11.30;9.30;;;;;;;12.27;100.00;98670.17;88179;275;136860;-73
2023/10/26 04:36:00;;;;;;;9.40;8.70;;;;;;;12.25;100.00;98673.71;88365;274;22536;-72
2023/10/26 04:38:02;;;;;;;9.90;9.00;;;;;;;12.27;100.00;98676.90;88419;276;22546;-71
2023/10/26 04:40:07;;;;;;;9.00;8.20;;;;;;;12.29;100.00;98676.92;88305;274;137219;-72
2023/10/26 04:42:10;;;;;;;8.50;6.60;;;;;;;12.29;100.00;98680.45;88463;274;25076;-72
2023/10/26 04:44:12;;;;;;;7.90;7.30;;;;;;;12.30;100.00;98678.96;88296;273;138353;-71
2023/10/26 04:46:14;;;;;;;8.00;7.00;;;;;;;12.29;100.00;98682.06;88469;274;22541;-69
2023/10/26 04:48:15;;;;;;;7.70;7.00;;;;;;;12.29;100.00;98685.80;88273;274;137532;-68
2023/10/26 04:50:17;;;;;;;6.60;6.00;;;;;;;12.30;100.00;98690.64;88438;273;26183;-69
2023/10/26 04:52:20;;;;;;;7.60;6.70;;;;;;;12.30;100.00;98696.66;88345;273;137217;-71
2023/10/26 04:54:22;;;;;;;10.90;5.90;;;;;;;12.30;100.00;98696.91;88375;273;24870;-72
2023/10/26 04:56:23;;;;;;;7.80;5.90;;;;;;;12.30;100.00;98703.78;88385;280;138333;-70
2023/10/26 04:58:25;;;;;;;7.90;7.20;;;;;;;12.31;100.00;98703.73;88386;281;23503;-67
2023/10/26 05:00:27;;;;;;;9.20;6.60;;;;;;;12.32;100.00;98703.70;88331;274;139019;-69
2023/10/26 05:02:29;;;;;;;6.50;6.00;;;;;;;12.33;100.00;98705.80;88389;274;24179;-71
2023/10/26 05:04:31;;;;;;;6.60;6.20;;;;;;;12.32;100.00;98699.16;88246;279;136819;-70
2023/10/26 05:06:33;;;;;;;6.60;5.70;;;;;;;12.37;100.00;98705.66;88513;276;24211;-68
2023/10/26 05:08:35;;;;;;;6.30;5.70;;;;;;;12.39;100.00;98710.56;88402;277;137103;-71
2023/10/26 05:10:36;;;;;;;6.40;5.90;;;;;;;12.40;100.00;98713.58;88332;280;24905;-73
2023/10/26 05:12:38;;;;;;;6.60;6.10;;;;;;;12.41;100.00;98712.77;88172;275;140360;-68
2023/10/26 05:14:40;;;;;;;9.90;6.90;;;;;;;12.41;100.00;98719.52;88451;274;22542;-69
2023/10/26 05:16:42;;;;;;;7.00;6.50;;;;;;;12.42;100.00;98720.02;88490;277;136824;-69
2023/10/26 05:18:44;;;;;;;7.30;6.70;;;;;;;12.42;100.00;98727.13;88464;274;25137;-70
2023/10/26 05:20:49;;;;;;;7.90;7.30;;;;;;;12.42;100.00;98726.70;88355;274;137098;-70
2023/10/26 05:22:51;;;;;;;6.80;6.20;;;;;;;12.42;100.00;98732.58;88407;274;25080;-70
2023/10/26 05:24:53;;;;;;;7.00;6.10;;;;;;;12.41;100.00;98734.48;88167;275;137197;-69
2023/10/26 05:26:55;;;;;;;7.70;7.10;;;;;;;12.39;100.00;98735.72;88348;274;22632;-70
2023/10/26 05:28:57;;;;;;;7.60;6.90;;;;;;;12.37;100.00;98736.97;88144;274;138237;-72
2023/10/26 05:30:58;;;;;;;6.90;6.20;;;;;;;12.37;100.00;98739.54;88383;273;22527;-72
2023/10/26 05:33:00;;;;;;;5.90;5.40;;;;;;;12.38;100.00;98736.94;88206;274;137152;-69
2023/10/26 05:35:05;;;;;;;5.60;5.20;;;;;;;12.37;100.00;98734.20;88419;274;24843;-65
2023/10/26 05:37:07;;;;;;;6.70;6.10;;;;;;;12.38;100.00;98733.73;88412;274;136730;-67
2023/10/26 05:39:09;;;;;;;9.10;5.90;;;;;;;12.39;100.00;98729.21;88274;274;24028;-69
2023/10/26 05:41:11;;;;;;;6.30;5.80;;;;;;;12.40;100.00;98728.54;88218;274;137039;-72
2023/10/26 05:43:13;;;;;;;6.20;5.70;;;;;;;12.41;100.00;98731.24;88334;274;24057;-69
2023/10/26 05:45:15;;;;;;;8.60;6.00;;;;;;;12.43;100.00;98731.80;88260;274;137102;-71
2023/10/26 05:47:18;;;;;;;7.40;5.80;;;;;;;12.45;100.00;98726.55;88450;274;26161;-72
2023/10/26 05:49:22;;;;;;;7.60;6.90;;;;;;;12.48;100.00;98726.16;88336;274;138266;-71
2023/10/26 05:51:24;;;;;;;7.70;7.10;;;;;;;12.50;100.00;98724.70;88409;278;24170;-70
2023/10/26 05:53:26;;;;;;;9.80;7.20;;;;;;;12.47;100.00;98716.00;88292;274;136997;-72
2023/10/26 05:55:28;;;;;;;7.30;6.70;;;;;;;12.54;100.00;98724.89;88430;274;22568;-71
2023/10/26 05:57:31;;;;;;;7.10;6.50;;;;;;;12.56;100.00;98728.59;88334;274;136926;-70
2023/10/26 05:59:33;;;;;;;8.70;7.80;;;;;;;12.57;100.00;98730.80;88361;274;22822;-70
2023/10/26 06:01:35;;;;;;;10.80;9.40;;;;;;;12.58;100.00;98729.62;88197;275;138986;-71
2023/10/26 06:06:07;;;;;;;7.90;6.90;;;;;;;12.58;100.00;98729.45;86784;303;602597;-70
2023/10/26 06:08:12;;;;;;;8.50;7.60;;;;;;;12.71;100.00;98730.20;87681;293;136684;-71
2023/10/26 06:10:14;;;;;;;8.30;7.60;;;;;;;12.74;100.00;98721.90;87749;292;25344;-69
2023/10/26 06:12:17;;;;;;;9.60;8.10;;;;;;;12.78;100.00;98720.69;87585;288;136295;-69
2023/10/26 06:14:19;;;;;;;10.00;9.10;;;;;;;12.77;100.00;98724.73;87788;289;22921;-71
2023/10/26 06:16:21;;;;;;;10.10;8.00;;;;;;;12.78;100.00;98730.09;87538;292;138158;-70
2023/10/26 06:18:23;;;;;;;11.00;9.90;;;;;;;12.70;100.00;98723.98;87873;284;24064;-70
2023/10/26 06:20:27;;;;;;;10.20;9.10;;;;;;;12.79;100.00;98745.95;87301;288;662471;-69
2023/10/26 06:22:29;;;;;;;12.10;10.80;;;;;;;12.79;100.00;98748.71;87867;287;22558;-70
2023/10/26 06:24:31;;;;;;;11.10;10.00;;;;;;;12.77;100.00;98751.16;87946;279;138232;-71
2023/10/26 06:26:33;;;;;;;8.90;8.00;;;;;;;12.74;100.00;98750.14;87989;286;22530;-70
2023/10/26 06:28:35;;;;;;;10.50;7.50;;;;;;;12.72;100.00;98748.77;87949;278;136427;-71
2023/10/26 06:30:37;;;;;;;10.00;8.60;;;;;;;12.70;100.00;98745.84;88197;277;22637;-68
2023/10/26 06:32:39;;;;;;;9.70;8.80;;;;;;;12.67;100.00;98741.95;88470;277;136803;-71
2023/10/26 06:34:41;;;;;;;9.90;8.90;;;;;;;12.65;100.00;98741.38;88030;284;23606;-70
2023/10/26 06:36:43;;;;;;;8.90;8.00;;;;;;;12.65;100.00;98746.14;87989;279;136381;-73
2023/10/26 06:38:45;;;;;;;10.90;9.90;;;;;;;12.67;100.00;98746.31;88184;277;24075;-73
2023/10/26 06:40:47;;;;;;;10.70;9.60;;;;;;;12.64;100.00;98752.48;88008;277;136879;-71
2023/10/26 06:42:49;;;;;;;25.20;18.60;;;;;;;12.65;100.00;98752.71;88042;283;22556;-70
2023/10/26 06:44:51;;;;;;;23.60;20.20;;;;;;;12.65;100.00;98758.11;88020;277;136949;-72
2023/10/26 06:46:53;;;;;;;21.80;18.50;;;;;;;12.66;100.00;98756.79;88077;279;24199;-70
2023/10/26 06:48:54;;;;;;;16.40;13.20;;;;;;;12.67;100.00;98757.99;88069;277;137134;-69
2023/10/26 06:51:03;;;;;;;11.00;9.90;;;;;;;12.70;100.00;98758.79;88104;279;22543;-76
2023/10/26 06:53:04;;;;;;;10.00;9.00;;;;;;;12.74;100.00;98763.82;88086;278;136738;-71
2023/10/26 06:55:07;;;;;;;10.80;9.80;;;;;;;12.77;100.00;98759.49;87998;279;22548;-72
2023/10/26 06:57:20;;;;;;;9.30;8.40;;;;;;;12.82;100.00;98754.65;87884;286;138136;-71
2023/10/26 06:59:22;;;;;;;11.00;9.90;;;;;;;12.84;100.00;98762.19;88065;286;24982;-71
2023/10/26 07:01:24;;;;;;;10.90;9.80;;;;;;;12.87;100.00;98763.83;87962;279;136771;-72
2023/10/26 07:03:50;;;;;;;10.50;9.00;;;;;;;12.91;100.00;98769.83;88016;279;25174;-72
2023/10/26 07:05:53;;;;;;;12.10;9.50;;;;;;;12.91;100.00;98767.98;87829;280;136413;-69
2023/10/26 07:07:55;;;;;;;15.40;13.30;;;;;;;12.91;100.00;98767.12;87922;284;24285;-71
2023/10/26 07:09:57;;;;;;;16.10;13.60;;;;;;;12.92;100.00;98764.09;87950;278;137990;-70
2023/10/26 07:11:59;;;;;;;11.50;10.20;;;;;;;12.93;100.00;98766.98;88006;284;25516;-70
2023/10/26 07:14:01;;;;;;;8.90;8.00;;;;;;;12.94;100.00;98770.38;87976;278;138262;-69
2023/10/26 07:16:04;;;;;;;8.50;7.60;;;;;;;12.94;100.00;98773.10;88004;282;138284;-71
2023/10/26 07:18:05;;;;;;;12.70;8.70;;;;;;;12.92;100.00;98770.02;89129;282;25293;-69
2023/10/26 07:20:12;;;;;;;8.90;7.30;;;;;;;12.94;100.00;98771.33;88019;286;138167;-70
2023/10/26 07:22:14;;;;;;;11.50;9.40;;;;;;;12.96;100.00;98776.34;88097;286;22623;-69
2023/10/26 07:24:16;;;;;;;10.00;7.70;;;;;;;13.00;100.00;98778.54;88043;279;137151;-70
2023/10/26 07:26:18;;;;;;;10.90;9.00;;;;;;;13.06;100.00;98780.21;88013;288;22818;-68
2023/10/26 07:28:20;;;;;;;13.70;12.20;;;;;;;13.14;100.00;98780.59;87949;283;136942;-70
2023/10/26 07:30:22;;;;;;;18.40;16.00;;;;;;;13.21;100.00;98781.65;88185;279;22548;-69
2023/10/26 07:32:24;;;;;;;18.70;16.10;;;;;;;13.29;100.00;98782.49;88020;286;137931;-73
2023/10/26 07:34:26;;;;;;;18.00;15.10;;;;;;;13.38;100.00;98786.14;88202;276;22886;-70
2023/10/26 07:36:30;;;;;;;16.40;14.20;;;;;;;13.51;100.00;98794.83;88264;283;136700;-69
2023/10/26 07:38:34;;;;;;;14.90;12.10;;;;;;;13.58;100.00;98789.70;88185;276;22592;-70
2023/10/26 07:40:38;;;;;;;;;;;;;;;13.75;100.00;98800.64;88112;276;136958;-69
2023/10/26 07:42:42;;;;;;;9.90;8.20;;;;;;;13.84;100.00;98797.60;88528;282;22642;-70
2023/10/26 07:44:45;;;;;;;9.30;8.40;;;;;;;13.91;100.00;98800.33;88169;282;137689;-70
2023/10/26 07:46:47;;;;;;;10.40;9.20;;;;;;;13.96;100.00;98797.39;88383;276;25138;-71
2023/10/26 07:48:49;;;;;;;9.90;7.80;;;;;;;13.99;100.00;98799.15;88393;282;136657;-71
2023/10/26 07:50:51;;;;;;;7.80;7.10;;;;;;;13.96;100.00;98803.66;88314;274;25280;-71
2023/10/26 07:52:53;;;;;;;8.50;7.50;;;;;;;13.87;100.00;98809.06;88381;282;136760;-69
2023/10/26 07:54:55;;;;;;;8.40;7.60;;;;;;;13.79;100.00;98813.23;88404;282;22612;-71
2023/10/26 07:56:57;;;;;;;7.90;7.00;;;;;;;13.73;100.00;98812.71;88273;279;136674;-70
2023/10/26 07:58:59;;;;;;;10.30;8.40;;;;;;;13.69;100.00;98814.00;88261;275;24474;-69
2023/10/26 08:01:09;;;;;;;12.10;9.60;;;;;;;13.69;100.00;98810.47;88130;283;136465;-68
2023/10/26 08:03:11;;;;;;;9.90;8.60;;;;;;;13.72;100.00;98811.14;88312;282;24058;-69
2023/10/26 08:05:15;;;;;;;10.30;9.30;;;;;;;13.74;100.00;98811.29;88274;275;136896;-70
2023/10/26 08:07:17;;;;;;;13.30;9.40;;;;;;;13.77;100.00;98811.45;88441;281;25176;-68
2023/10/26 08:09:19;;;;;;;9.40;6.90;;;;;;;13.81;100.00;98813.42;88243;283;136296;-71
2023/10/26 08:11:23;;;;;;;8.90;7.80;;;;;;;13.84;100.00;98806.61;88572;282;25184;-71
2023/10/26 08:13:25;;;;;;;9.60;7.70;;;;;;;13.90;100.00;98805.02;88603;275;136399;-70
2023/10/26 08:15:27;;;;;;;9.10;8.20;;;;;;;13.96;100.00;98808.27;88554;275;22541;-69
2023/10/26 08:17:48;;;;;;;8.70;8.00;;;;;;;13.98;100.00;98809.15;88344;275;136390;-72
2023/10/26 08:19:53;;;;;;;9.80;8.90;;;;;;;13.94;100.00;98810.97;88351;274;22578;-68
2023/10/26 08:21:55;;;;;;;9.20;7.90;;;;;;;13.89;100.00;98815.60;88296;276;136826;-73
2023/10/26 08:23:57;;;;;;;10.40;8.80;;;;;;;13.87;100.00;98817.58;88289;277;22560;-68
2023/10/26 08:26:07;;;;;;;10.40;9.00;;;;;;;13.88;100.00;98814.38;88185;279;136768;-67
2023/10/26 08:28:09;;;;;;;10.60;7.90;;;;;;;13.87;100.00;98821.01;88224;281;137229;-68
2023/10/26 08:30:12;;;;;;;9.00;8.00;;;;;;;13.85;100.00;98821.17;88374;275;24031;-65
2023/10/26 08:32:15;;;;;;;9.00;7.40;;;;;;;13.86;100.00;98819.80;88365;275;136505;-69
2023/10/26 08:34:17;;;;;;;8.30;7.40;;;;;;;13.93;100.00;98826.91;88375;284;23102;-70
2023/10/26 08:36:19;;;;;;;8.20;7.50;;;;;;;13.98;100.00;98832.19;88227;283;137995;-67
2023/10/26 08:38:22;;;;;;;7.90;6.70;;;;;;;14.03;100.00;98829.25;88197;283;22584;-69
2023/10/26 08:40:24;;;;;;;8.20;7.50;;;;;;;14.07;100.00;98834.19;88308;276;136492;-71
2023/10/26 08:42:26;;;;;;;9.70;7.30;;;;;;;14.09;100.00;98827.94;88159;276;24070;-71
2023/10/26 08:44:29;;;;;;;9.00;7.00;;;;;;;14.11;100.00;98826.79;88239;274;137732;-72
2023/10/26 08:46:32;;;;;;;8.40;7.60;;;;;;;14.13;100.00;98831.73;89247;275;24170;-71
2023/10/26 08:48:38;;;;;;;8.20;7.40;;;;;;;14.17;100.00;98832.86;88533;274;150815;-69
2023/10/26 08:50:40;;;;;;;8.70;6.60;;;;;;;14.26;100.00;98841.01;88318;275;22620;-72
2023/10/26 08:52:44;;;;;;;6.90;5.90;;;;;;;14.25;100.00;98830.02;88191;276;136555;-70
2023/10/26 08:54:47;;;;;;;7.50;6.80;;;;;;;14.37;100.00;98842.86;88288;275;22984;-71
2023/10/26 08:56:49;;;;;;;7.50;6.80;;;;;;;14.40;100.00;98841.02;88861;282;136775;-71
2023/10/26 08:59:00;;;;;;;5.70;4.70;;;;;;;14.44;100.00;98838.98;88334;275;24098;-71
2023/10/26 09:01:04;;;;;;;5.80;5.30;;;;;;;14.48;100.00;98841.16;88408;274;138203;-67
2023/10/26 09:03:06;;;;;;;6.30;5.40;;;;;;;14.46;100.00;98836.54;88290;276;22529;-68
2023/10/26 09:05:10;;;;;;;7.60;6.20;;;;;;;14.45;100.00;98838.73;88188;276;136581;-73
2023/10/26 09:07:25;;;;;;;5.30;4.90;;;;;;;14.39;100.00;98826.38;88423;276;23138;-73
2023/10/26 09:09:27;;;;;;;6.30;4.20;;;;;;;14.42;100.00;98841.05;88238;282;136826;-71
2023/10/26 09:11:29;;;;;;;5.00;4.30;;;;;;;14.41;100.00;98844.05;88254;275;24168;-70
2023/10/26 09:13:32;;;;;;;4.90;4.50;;;;;;;14.39;100.00;98843.05;88260;282;137564;-70
2023/10/26 09:15:47;;;;;;;5.10;4.60;;;;;;;14.41;100.00;98844.30;88433;276;22541;-72
2023/10/26 09:17:49;;;;;;;4.40;4.00;;;;;;;14.48;100.00;98850.50;88261;280;136703;-71
2023/10/26 09:19:51;;;;;;;4.90;4.50;;;;;;;14.54;100.00;98850.69;88293;274;25171;-69
2023/10/26 09:21:57;;;;;;;3.90;3.60;;;;;;;14.57;100.00;98854.79;88301;282;136686;-68
2023/10/26 09:24:16;;;;;;;7.10;4.80;;;;;;;14.58;100.00;98848.08;88622;275;25331;-71
2023/10/26 09:26:20;;;;;;;5.60;5.10;;;;;;;14.57;100.00;98852.55;88376;282;22533;-70
2023/10/26 09:28:22;;;;;;;10.00;6.20;;;;;;;14.57;100.00;98852.19;88270;276;138089;-71
2023/10/26 09:30:29;;;;;;;5.70;4.70;;;;;;;14.60;100.00;98854.80;88122;283;24065;-70
2023/10/26 09:32:33;;;;;;;6.60;4.80;;;;;;;14.59;100.00;98852.98;88357;282;137311;-72